PWSweather.com
Personal Weather Stations
Station Observations
KMIEASTT1
Tawas Bay, East Tawas, MI 48730

Tawas BayEast Tawas, MI 48730

Lat: 44.28, Lon: -83.48

Elevation: 600

Station Type: Davis VantagePro

http://www.tawasbayweather.com

High Low Average
Temperature 40.8°F4.9°C 32.6°F0.3°C 36.0°F2.2°C
Dew Point 40.3°F4.6°C 31.8°F-0.1°C 35.2°F1.8°C
Winds 27.0 mph 43.5 kmh 1.0 mph 1.6 kmh 8.0 mph SSE12.9 kmh SSE
Wind Gusts 28.0 mph45.1 kmh 3.0 mph4.8 kmh 10.0 mph16.1 kmh
Humidity 98% 90% 97%
Pressure 29.83 in1010.2 mb 29.36 in994.2 mb -
Precipitation 0.00 in0.0 mm - -
Hour Temp Dew Point Humidity Winds Wind Gusts Pressure Precip Precip Rate Daily Precip Total
12:02 AM 32.6°F0.3°C 31.8°F-0.1°C 97% 4.0 mph S6.4 kmh S 7.0 mph11.3 kmh 29.83 in1010.2 mb 0.00 in0.0 mm 0.00 in/hr0.0 mm/hr 0.00 in0.0 mm
12:16 AM 32.6°F0.3°C 31.8°F-0.1°C 97% 5.0 mph SE8.0 kmh SE 5.0 mph8.0 kmh 29.81 in1009.5 mb 0.00 in0.0 mm 0.00 in/hr0.0 mm/hr 0.00 in0.0 mm
12:30 AM 32.6°F0.3°C 31.8°F-0.1°C 97% 5.0 mph SE8.0 kmh SE 9.0 mph14.5 kmh 29.80 in1009.1 mb 0.00 in0.0 mm 0.00 in/hr0.0 mm/hr 0.00 in0.0 mm
12:46 AM 32.7°F0.4°C 31.9°F-0.1°C 97% 4.0 mph SE6.4 kmh SE 7.0 mph11.3 kmh 29.80 in1009.1 mb 0.00 in0.0 mm 0.00 in/hr0.0 mm/hr 0.00 in0.0 mm
01:01 AM 32.8°F0.4°C 32.0°F0.0°C 97% 5.0 mph ESE8.0 kmh ESE 5.0 mph8.0 kmh 29.79 in1008.8 mb 0.00 in0.0 mm 0.00 in/hr0.0 mm/hr 0.00 in0.0 mm
01:16 AM 32.9°F0.5°C 32.1°F0.1°C 97% 7.0 mph E11.3 kmh E 8.0 mph12.9 kmh 29.77 in1008.1 mb 0.00 in0.0 mm 0.00 in/hr0.0 mm/hr 0.00 in0.0 mm
01:31 AM 33.0°F0.6°C 32.2°F0.1°C 97% 5.0 mph ESE8.0 kmh ESE 7.0 mph11.3 kmh 29.77 in1008.1 mb 0.00 in0.0 mm 0.00 in/hr0.0 mm/hr 0.00 in0.0 mm
01:46 AM 33.2°F0.7°C 32.4°F0.2°C 97% 4.0 mph E6.4 kmh E 8.0 mph12.9 kmh 29.75 in1007.5 mb 0.00 in0.0 mm 0.00 in/hr0.0 mm/hr 0.00 in0.0 mm
02:01 AM 33.4°F0.8°C 32.6°F0.3°C 97% 6.0 mph E9.7 kmh E 7.0 mph11.3 kmh 29.74 in1007.1 mb 0.00 in0.0 mm 0.00 in/hr0.0 mm/hr 0.00 in0.0 mm
02:15 AM 33.5°F0.8°C 32.7°F0.4°C 97% 5.0 mph E8.0 kmh E 6.0 mph9.7 kmh 29.75 in1007.5 mb 0.00 in0.0 mm 0.00 in/hr0.0 mm/hr 0.00 in0.0 mm
02:31 AM 33.9°F1.1°C 33.1°F0.6°C 97% 5.0 mph E8.0 kmh E 7.0 mph11.3 kmh 29.74 in1007.1 mb 0.00 in0.0 mm 0.00 in/hr0.0 mm/hr 0.00 in0.0 mm
02:46 AM 34.0°F1.1°C 33.2°F0.7°C 97% 5.0 mph E8.0 kmh E 8.0 mph12.9 kmh 29.72 in1006.4 mb 0.00 in0.0 mm 0.00 in/hr0.0 mm/hr 0.00 in0.0 mm
03:01 AM 34.1°F1.2°C 33.6°F0.9°C 98% 7.0 mph ESE11.3 kmh ESE 8.0 mph12.9 kmh 29.71 in1006.1 mb 0.00 in0.0 mm 0.00 in/hr0.0 mm/hr 0.00 in0.0 mm
03:15 AM 34.4°F1.3°C 33.9°F1.1°C 98% 7.0 mph ESE11.3 kmh ESE 8.0 mph12.9 kmh 29.70 in1005.8 mb 0.00 in0.0 mm 0.00 in/hr0.0 mm/hr 0.00 in0.0 mm
03:31 AM 34.8°F1.6°C 34.3°F1.3°C 98% 8.0 mph ESE12.9 kmh ESE 10.0 mph16.1 kmh 29.68 in1005.1 mb 0.00 in0.0 mm 0.00 in/hr0.0 mm/hr 0.00 in0.0 mm
03:45 AM 34.6°F1.4°C 33.8°F1.0°C 97% 7.0 mph E11.3 kmh E 10.0 mph16.1 kmh 29.67 in1004.7 mb 0.00 in0.0 mm 0.00 in/hr0.0 mm/hr 0.00 in0.0 mm
04:01 AM 34.8°F1.6°C 34.0°F1.1°C 97% 8.0 mph E12.9 kmh E 9.0 mph14.5 kmh 29.65 in1004.1 mb 0.00 in0.0 mm 0.00 in/hr0.0 mm/hr 0.00 in0.0 mm
04:15 AM 34.8°F1.6°C 34.0°F1.1°C 97% 9.0 mph ESE14.5 kmh ESE 10.0 mph16.1 kmh 29.63 in1003.4 mb 0.00 in0.0 mm 0.00 in/hr0.0 mm/hr 0.00 in0.0 mm
04:31 AM 34.9°F1.6°C 34.1°F1.2°C 97% 8.0 mph E12.9 kmh E 9.0 mph14.5 kmh 29.61 in1002.7 mb 0.00 in0.0 mm 0.00 in/hr0.0 mm/hr 0.00 in0.0 mm
04:45 AM 35.4°F1.9°C 34.6°F1.4°C 97% 9.0 mph E14.5 kmh E 11.0 mph17.7 kmh 29.59 in1002.0 mb 0.00 in0.0 mm 0.00 in/hr0.0 mm/hr 0.00 in0.0 mm
05:01 AM 36.1°F2.3°C 35.3°F1.8°C 97% 11.0 mph SE17.7 kmh SE 12.0 mph19.3 kmh 29.58 in1001.7 mb 0.00 in0.0 mm 0.00 in/hr0.0 mm/hr 0.00 in0.0 mm
05:30 AM 36.3°F2.4°C 35.5°F1.9°C 97% 6.0 mph SW9.7 kmh SW 8.0 mph12.9 kmh 29.58 in1001.7 mb 0.00 in0.0 mm 0.00 in/hr0.0 mm/hr 0.00 in0.0 mm
05:45 AM 36.7°F2.6°C 35.9°F2.2°C 97% 7.0 mph SW11.3 kmh SW 12.0 mph19.3 kmh 29.60 in1002.4 mb 0.20 in5.1 mm 0.80 in/hr20.3 mm/hr 0.20 in5.1 mm
06:01 AM 36.2°F2.3°C 35.4°F1.9°C 97% 7.0 mph S11.3 kmh S 9.0 mph14.5 kmh 29.59 in1002.0 mb 0.28 in7.1 mm 0.11 in/hr2.8 mm/hr 0.28 in7.1 mm
06:15 AM 36.4°F2.4°C 35.6°F2.0°C 97% 6.0 mph SSE9.7 kmh SSE 11.0 mph17.7 kmh 29.58 in1001.7 mb 0.32 in8.1 mm 0.17 in/hr4.3 mm/hr 0.32 in8.1 mm
06:31 AM 36.8°F2.7°C 36.0°F2.2°C 97% 11.0 mph SSE17.7 kmh SSE 16.0 mph25.7 kmh 29.56 in1001.0 mb 0.35 in8.9 mm 0.11 in/hr2.8 mm/hr 0.35 in8.9 mm
06:46 AM 36.0°F2.2°C 35.2°F1.8°C 97% 8.0 mph SE12.9 kmh SE 12.0 mph19.3 kmh 29.54 in1000.3 mb 0.35 in8.9 mm 0.00 in/hr0.0 mm/hr 0.35 in8.9 mm
07:01 AM 36.4°F2.4°C 35.6°F2.0°C 97% 12.0 mph SE19.3 kmh SE 13.0 mph20.9 kmh 29.52 in999.7 mb 0.08 in2.0 mm 0.00 in/hr0.0 mm/hr 0.35 in8.9 mm
07:16 AM 36.3°F2.4°C 35.5°F1.9°C 97% 9.0 mph SE14.5 kmh SE 13.0 mph20.9 kmh 29.51 in999.3 mb 0.09 in2.3 mm 0.04 in/hr1.0 mm/hr 0.36 in9.1 mm
07:30 AM 36.0°F2.2°C 35.2°F1.8°C 97% 8.0 mph ESE12.9 kmh ESE 9.0 mph14.5 kmh 29.48 in998.3 mb 0.03 in0.8 mm 0.00 in/hr0.0 mm/hr 0.36 in9.1 mm
07:45 AM 36.0°F2.2°C 35.2°F1.8°C 97% 7.0 mph ESE11.3 kmh ESE 9.0 mph14.5 kmh 29.47 in998.0 mb 0.04 in1.0 mm 0.04 in/hr1.0 mm/hr 0.37 in9.4 mm
08:01 AM 36.0°F2.2°C 35.2°F1.8°C 97% 5.0 mph SE8.0 kmh SE 6.0 mph9.7 kmh 29.47 in998.0 mb 0.03 in0.8 mm 0.00 in/hr0.0 mm/hr 0.37 in9.4 mm
08:15 AM 36.5°F2.5°C 35.7°F2.1°C 97% 7.0 mph SW11.3 kmh SW 7.0 mph11.3 kmh 29.49 in998.6 mb 0.03 in0.8 mm 0.00 in/hr0.0 mm/hr 0.37 in9.4 mm
08:30 AM 36.1°F2.3°C 35.3°F1.8°C 97% 3.0 mph SW4.8 kmh SW 8.0 mph12.9 kmh 29.50 in999.0 mb 0.01 in0.3 mm 0.00 in/hr0.0 mm/hr 0.37 in9.4 mm
08:46 AM 36.3°F2.4°C 35.5°F1.9°C 97% 7.0 mph S11.3 kmh S 9.0 mph14.5 kmh 29.50 in999.0 mb 0.01 in0.3 mm 0.00 in/hr0.0 mm/hr 0.37 in9.4 mm
09:01 AM 36.3°F2.4°C 35.5°F1.9°C 97% 6.0 mph S9.7 kmh S 10.0 mph16.1 kmh 29.50 in999.0 mb 0.00 in0.0 mm 0.00 in/hr0.0 mm/hr 0.37 in9.4 mm
09:15 AM 36.0°F2.2°C 35.2°F1.8°C 97% 4.0 mph S6.4 kmh S 8.0 mph12.9 kmh 29.50 in999.0 mb 0.00 in0.0 mm 0.00 in/hr0.0 mm/hr 0.37 in9.4 mm
09:31 AM 36.0°F2.2°C 35.2°F1.8°C 97% 5.0 mph S8.0 kmh S 7.0 mph11.3 kmh 29.49 in998.6 mb 0.00 in0.0 mm 0.00 in/hr0.0 mm/hr 0.37 in9.4 mm
09:45 AM 36.1°F2.3°C 35.3°F1.8°C 97% 4.0 mph S6.4 kmh S 7.0 mph11.3 kmh 29.49 in998.6 mb 0.00 in0.0 mm 0.00 in/hr0.0 mm/hr 0.37 in9.4 mm
10:02 AM 35.9°F2.2°C 35.1°F1.7°C 97% 4.0 mph S6.4 kmh S 5.0 mph8.0 kmh 29.49 in998.6 mb 0.00 in0.0 mm 0.00 in/hr0.0 mm/hr 0.37 in9.4 mm
10:16 AM 35.8°F2.1°C 35.0°F1.7°C 97% 2.0 mph S3.2 kmh S 3.0 mph4.8 kmh 29.49 in998.6 mb 0.00 in0.0 mm 0.00 in/hr0.0 mm/hr 0.37 in9.4 mm
10:30 AM 35.9°F2.2°C 35.1°F1.7°C 97% 5.0 mph S8.0 kmh S 7.0 mph11.3 kmh 29.50 in999.0 mb 0.00 in0.0 mm 0.00 in/hr0.0 mm/hr 0.37 in9.4 mm
10:46 AM 36.2°F2.3°C 35.4°F1.9°C 97% 5.0 mph S8.0 kmh S 8.0 mph12.9 kmh 29.49 in998.6 mb 0.00 in0.0 mm 0.00 in/hr0.0 mm/hr 0.37 in9.4 mm
11:01 AM 36.1°F2.3°C 35.3°F1.8°C 97% 4.0 mph S6.4 kmh S 7.0 mph11.3 kmh 29.48 in998.3 mb 0.00 in0.0 mm 0.00 in/hr0.0 mm/hr 0.37 in9.4 mm
11:16 AM 36.1°F2.3°C 35.3°F1.8°C 97% 4.0 mph S6.4 kmh S 6.0 mph9.7 kmh 29.47 in998.0 mb 0.00 in0.0 mm 0.00 in/hr0.0 mm/hr 0.37 in9.4 mm
11:31 AM 36.7°F2.6°C 36.2°F2.3°C 98% 4.0 mph S6.4 kmh S 7.0 mph11.3 kmh 29.46 in997.6 mb 0.00 in0.0 mm 0.00 in/hr0.0 mm/hr 0.37 in9.4 mm
11:46 AM 36.3°F2.4°C 35.5°F1.9°C 97% 1.0 mph SSW1.6 kmh SSW 4.0 mph6.4 kmh 29.45 in997.3 mb 0.00 in0.0 mm 0.00 in/hr0.0 mm/hr 0.37 in9.4 mm
12:02 PM 36.9°F2.7°C 36.4°F2.4°C 98% 5.0 mph SSW8.0 kmh SSW 7.0 mph11.3 kmh 29.44 in997.0 mb 0.00 in0.0 mm 0.00 in/hr0.0 mm/hr 0.37 in9.4 mm
12:16 PM 36.3°F2.4°C 35.5°F1.9°C 97% 1.0 mph SW1.6 kmh SW 3.0 mph4.8 kmh 29.44 in997.0 mb 0.00 in0.0 mm 0.00 in/hr0.0 mm/hr 0.37 in9.4 mm
12:31 PM 36.7°F2.6°C 36.2°F2.3°C 98% 6.0 mph SSE9.7 kmh SSE 8.0 mph12.9 kmh 29.42 in996.3 mb 0.00 in0.0 mm 0.00 in/hr0.0 mm/hr 0.37 in9.4 mm
12:46 PM 37.5°F3.1°C 37.0°F2.8°C 98% 3.0 mph S4.8 kmh S 12.0 mph19.3 kmh 29.41 in995.9 mb 0.00 in0.0 mm 0.00 in/hr0.0 mm/hr 0.37 in9.4 mm
01:02 PM 36.7°F2.6°C 35.9°F2.2°C 97% 4.0 mph S6.4 kmh S 5.0 mph8.0 kmh 29.40 in995.6 mb 0.00 in0.0 mm 0.00 in/hr0.0 mm/hr 0.37 in9.4 mm
01:16 PM 36.9°F2.7°C 36.1°F2.3°C 97% 5.0 mph SSW8.0 kmh SSW 8.0 mph12.9 kmh 29.40 in995.6 mb 0.00 in0.0 mm 0.00 in/hr0.0 mm/hr 0.37 in9.4 mm
01:31 PM 37.0°F2.8°C 36.5°F2.5°C 98% 4.0 mph SSW6.4 kmh SSW 7.0 mph11.3 kmh 29.40 in995.6 mb 0.00 in0.0 mm 0.00 in/hr0.0 mm/hr 0.37 in9.4 mm
01:46 PM 36.6°F2.6°C 35.8°F2.1°C 97% 3.0 mph SSW4.8 kmh SSW 4.0 mph6.4 kmh 29.39 in995.3 mb 0.01 in0.3 mm 0.04 in/hr1.0 mm/hr 0.38 in9.7 mm
02:01 PM 37.4°F3.0°C 36.9°F2.7°C 98% 11.0 mph S17.7 kmh S 12.0 mph19.3 kmh 29.39 in995.3 mb 0.02 in0.5 mm 0.01 in/hr0.3 mm/hr 0.39 in9.9 mm
02:15 PM 37.2°F2.9°C 36.7°F2.6°C 98% 6.0 mph SW9.7 kmh SW 7.0 mph11.3 kmh 29.38 in994.9 mb 0.04 in1.0 mm 0.09 in/hr2.3 mm/hr 0.41 in10.4 mm
02:31 PM 36.9°F2.7°C 36.4°F2.4°C 98% 13.0 mph SE20.9 kmh SE 13.0 mph20.9 kmh 29.37 in994.6 mb 0.05 in1.3 mm 0.04 in/hr1.0 mm/hr 0.42 in10.7 mm
02:46 PM 37.7°F3.2°C 37.2°F2.9°C 98% 13.0 mph SE20.9 kmh SE 16.0 mph25.7 kmh 29.37 in994.6 mb 0.06 in1.5 mm 0.04 in/hr1.0 mm/hr 0.43 in10.9 mm
03:01 PM 37.9°F3.3°C 37.4°F3.0°C 98% 10.0 mph SE16.1 kmh SE 14.0 mph22.5 kmh 29.36 in994.2 mb 0.04 in1.0 mm 0.00 in/hr0.0 mm/hr 0.43 in10.9 mm
03:15 PM 37.9°F3.3°C 37.4°F3.0°C 98% 12.0 mph S19.3 kmh S 15.0 mph24.1 kmh 29.36 in994.2 mb 0.05 in1.3 mm 0.04 in/hr1.0 mm/hr 0.44 in11.2 mm
03:31 PM 37.4°F3.0°C 36.9°F2.7°C 98% 12.0 mph SSW19.3 kmh SSW 14.0 mph22.5 kmh 29.37 in994.6 mb 0.02 in0.5 mm 0.00 in/hr0.0 mm/hr 0.44 in11.2 mm
03:45 PM 36.9°F2.7°C 36.4°F2.4°C 98% 8.0 mph SSW12.9 kmh SSW 11.0 mph17.7 kmh 29.37 in994.6 mb 0.02 in0.5 mm 0.00 in/hr0.0 mm/hr 0.44 in11.2 mm
04:01 PM 36.6°F2.6°C 36.1°F2.3°C 98% 8.0 mph S12.9 kmh S 10.0 mph16.1 kmh 29.37 in994.6 mb 0.01 in0.3 mm 0.00 in/hr0.0 mm/hr 0.44 in11.2 mm
04:16 PM 36.4°F2.4°C 35.9°F2.2°C 98% 8.0 mph S12.9 kmh S 10.0 mph16.1 kmh 29.37 in994.6 mb 0.01 in0.3 mm 0.00 in/hr0.0 mm/hr 0.44 in11.2 mm
04:31 PM 36.0°F2.2°C 35.5°F1.9°C 98% 7.0 mph S11.3 kmh S 9.0 mph14.5 kmh 29.37 in994.6 mb 0.00 in0.0 mm 0.00 in/hr0.0 mm/hr 0.44 in11.2 mm
04:46 PM 37.9°F3.3°C 37.4°F3.0°C 98% 8.0 mph SW12.9 kmh SW 12.0 mph19.3 kmh 29.38 in994.9 mb 0.00 in0.0 mm 0.00 in/hr0.0 mm/hr 0.44 in11.2 mm
05:02 PM 40.8°F4.9°C 40.3°F4.6°C 98% 16.0 mph WSW25.7 kmh WSW 25.0 mph40.2 kmh 29.39 in995.3 mb 0.00 in0.0 mm 0.00 in/hr0.0 mm/hr 0.44 in11.2 mm
05:16 PM 40.6°F4.8°C 38.5°F3.6°C 92% 15.0 mph SW24.1 kmh SW 26.0 mph41.8 kmh 29.40 in995.6 mb 0.00 in0.0 mm 0.00 in/hr0.0 mm/hr 0.44 in11.2 mm
05:31 PM 39.8°F4.3°C 38.0°F3.3°C 93% 17.0 mph SW27.4 kmh SW 20.0 mph32.2 kmh 29.41 in995.9 mb 0.00 in0.0 mm 0.00 in/hr0.0 mm/hr 0.44 in11.2 mm
05:46 PM 38.8°F3.8°C 36.1°F2.3°C 90% 27.0 mph WSW43.5 kmh WSW 28.0 mph45.1 kmh 29.42 in996.3 mb 0.00 in0.0 mm 0.00 in/hr0.0 mm/hr 0.44 in11.2 mm
06:02 PM 37.9°F3.3°C 35.5°F1.9°C 91% 15.0 mph SW24.1 kmh SW 22.0 mph35.4 kmh 29.43 in996.6 mb 0.00 in0.0 mm 0.00 in/hr0.0 mm/hr 0.44 in11.2 mm
06:16 PM 37.6°F3.1°C 34.9°F1.6°C 90% 19.0 mph WSW30.6 kmh WSW 25.0 mph40.2 kmh 29.44 in997.0 mb 0.00 in0.0 mm 0.00 in/hr0.0 mm/hr 0.44 in11.2 mm
06:30 PM 37.2°F2.9°C 34.8°F1.6°C 91% 19.0 mph SW30.6 kmh SW 20.0 mph32.2 kmh 29.45 in997.3 mb 0.00 in0.0 mm 0.00 in/hr0.0 mm/hr 0.44 in11.2 mm
06:46 PM 37.0°F2.8°C 34.6°F1.4°C 91% 15.0 mph WSW24.1 kmh WSW 21.0 mph33.8 kmh 29.47 in998.0 mb 0.00 in0.0 mm 0.00 in/hr0.0 mm/hr 0.44 in11.2 mm
07:01 PM 37.0°F2.8°C 34.6°F1.4°C 91% 15.0 mph SW24.1 kmh SW 21.0 mph33.8 kmh 29.47 in998.0 mb 0.00 in0.0 mm 0.00 in/hr0.0 mm/hr 0.44 in11.2 mm
07:15 PM 36.8°F2.7°C 34.4°F1.3°C 91% 22.0 mph SW35.4 kmh SW 25.0 mph40.2 kmh 29.48 in998.3 mb 0.00 in0.0 mm 0.00 in/hr0.0 mm/hr 0.44 in11.2 mm
07:30 PM 36.6°F2.6°C 34.2°F1.2°C 91% 18.0 mph WSW29.0 kmh WSW 22.0 mph35.4 kmh 29.49 in998.6 mb 0.00 in0.0 mm 0.00 in/hr0.0 mm/hr 0.44 in11.2 mm
07:45 PM 36.4°F2.4°C 34.0°F1.1°C 91% 21.0 mph WSW33.8 kmh WSW 23.0 mph37.0 kmh 29.50 in999.0 mb 0.00 in0.0 mm 0.00 in/hr0.0 mm/hr 0.44 in11.2 mm
08:02 PM 36.2°F2.3°C 33.8°F1.0°C 91% 15.0 mph WSW24.1 kmh WSW 21.0 mph33.8 kmh 29.51 in999.3 mb 0.00 in0.0 mm 0.00 in/hr0.0 mm/hr 0.44 in11.2 mm
08:16 PM 36.1°F2.3°C 33.7°F0.9°C 91% 13.0 mph WSW20.9 kmh WSW 23.0 mph37.0 kmh 29.52 in999.7 mb 0.00 in0.0 mm 0.00 in/hr0.0 mm/hr 0.44 in11.2 mm
08:30 PM 35.9°F2.2°C 33.5°F0.8°C 91% 16.0 mph WSW25.7 kmh WSW 28.0 mph45.1 kmh 29.53 in1000.0 mb 0.00 in0.0 mm 0.00 in/hr0.0 mm/hr 0.44 in11.2 mm
08:46 PM 35.7°F2.1°C 33.6°F0.9°C 92% 16.0 mph WSW25.7 kmh WSW 21.0 mph33.8 kmh 29.54 in1000.3 mb 0.00 in0.0 mm 0.00 in/hr0.0 mm/hr 0.44 in11.2 mm
09:01 PM 35.4°F1.9°C 33.0°F0.6°C 91% 17.0 mph WSW27.4 kmh WSW 24.0 mph38.6 kmh 29.55 in1000.7 mb 0.00 in0.0 mm 0.00 in/hr0.0 mm/hr 0.44 in11.2 mm
09:16 PM 35.2°F1.8°C 32.8°F0.4°C 91% 19.0 mph WSW30.6 kmh WSW 22.0 mph35.4 kmh 29.57 in1001.4 mb 0.00 in0.0 mm 0.00 in/hr0.0 mm/hr 0.44 in11.2 mm
09:31 PM 34.8°F1.6°C 32.5°F0.3°C 91% 21.0 mph WSW33.8 kmh WSW 23.0 mph37.0 kmh 29.57 in1001.4 mb 0.00 in0.0 mm 0.00 in/hr0.0 mm/hr 0.44 in11.2 mm
09:45 PM 34.9°F1.6°C 32.0°F0.0°C 89% 19.0 mph WSW30.6 kmh WSW 24.0 mph38.6 kmh 29.59 in1002.0 mb 0.00 in0.0 mm 0.00 in/hr0.0 mm/hr 0.44 in11.2 mm
10:02 PM 34.7°F1.5°C 31.5°F-0.3°C 88% 15.0 mph WSW24.1 kmh WSW 24.0 mph38.6 kmh 29.60 in1002.4 mb 0.00 in0.0 mm 0.00 in/hr0.0 mm/hr 0.44 in11.2 mm
10:16 PM 34.4°F1.3°C 31.2°F-0.4°C 88% 15.0 mph WSW24.1 kmh WSW 25.0 mph40.2 kmh 29.61 in1002.7 mb 0.00 in0.0 mm 0.00 in/hr0.0 mm/hr 0.44 in11.2 mm
10:31 PM 33.9°F1.1°C 31.0°F-0.6°C 89% 16.0 mph WSW25.7 kmh WSW 24.0 mph38.6 kmh 29.61 in1002.7 mb 0.00 in0.0 mm 0.00 in/hr0.0 mm/hr 0.44 in11.2 mm
10:45 PM 33.7°F0.9°C 30.8°F-0.7°C 89% 19.0 mph WSW30.6 kmh WSW 24.0 mph38.6 kmh 29.63 in1003.4 mb 0.00 in0.0 mm 0.00 in/hr0.0 mm/hr 0.44 in11.2 mm
11:01 PM 33.6°F0.9°C 30.7°F-0.7°C 89% 18.0 mph WSW29.0 kmh WSW 25.0 mph40.2 kmh 29.64 in1003.7 mb 0.00 in0.0 mm 0.00 in/hr0.0 mm/hr 0.44 in11.2 mm
11:15 PM 33.5°F0.8°C 30.6°F-0.8°C 89% 16.0 mph WSW25.7 kmh WSW 26.0 mph41.8 kmh 29.65 in1004.1 mb 0.00 in0.0 mm 0.00 in/hr0.0 mm/hr 0.44 in11.2 mm
11:31 PM 33.3°F0.7°C 30.1°F-1.1°C 88% 22.0 mph SW35.4 kmh SW 24.0 mph38.6 kmh 29.65 in1004.1 mb 0.00 in0.0 mm 0.00 in/hr0.0 mm/hr 0.44 in11.2 mm
11:46 PM 33.3°F0.7°C 29.9°F-1.2°C 87% 16.0 mph WSW25.7 kmh WSW 25.0 mph40.2 kmh 29.66 in1004.4 mb 0.00 in0.0 mm 0.00 in/hr0.0 mm/hr 0.44 in11.2 mm